If you wish to contribute or participate in the discussions about articles you are invited to join SKYbrary as a registered user

 Actions

Gustavus Airport

From SKYbrary Wiki

PAGS
Airport
ICAO: PAGS – IATA: GST
Summary
Name Gustavus Airport
Region North America
Territory Alaska US.gif
Location , Alaska
Serving Gustavus
Elevation 10.668 m
35 ft
35 ft10.668 m
Type medium airport
Coordinates 58° 25' 31.08" N, 135° 42' 25.20" W
Runways
Designator Length Width Surface ROPS
2/20 917 m3,008.53 ft
18 m59.055 ft
ASP yes/yes
11/29 2048 m6,719.16 ft
46 m150.919 ft
ASP yes/yes


METAR
Observation PAGS 191410Z AUTO 10005KT 10SM SCT023 BKN031 OVC060 12/11 A2979 RMK AO2
Station Gustavus, Gustavus Airport
Date/Time 19 September 2019 14:10:00
Wind direction 100°
Wind speed 05 kts
Lowest cloud amount scattered clouds
Temperature 12°C
Dew point 11°C
Humidity 93%
QNH hPa
Weather condition n/a